Time;durP1;ratioP1;P1;durP2;ratioP2;P2;SDS_P1;SDS_P2;PMS_P1;PMS_P2;Temp;Humidity;BMP_temperature;BMP_pressure;BME280_temperature;BME280_humidity;BME280_pressure;Samples;Min_cycle;Max_cycle;Signal;HPM_P1;HPM_P2
2023/03/08 00:00:21;;;;;;;1999.90;999.90;;;;;;;6.87;100.00;96542.75;5089430;28;20118;-75
2023/03/08 00:02:46;;;;;;;1999.90;999.90;;;;;;;6.70;100.00;96545.31;5078189;28;20035;-75
2023/03/08 00:05:12;;;;;;;1999.90;999.90;;;;;;;6.69;100.00;96546.44;5089856;28;20043;-75
2023/03/08 00:07:37;;;;;;;1999.90;999.90;;;;;;;6.66;100.00;96547.03;5090032;28;20031;-77
2023/03/08 00:10:04;;;;;;;1999.90;999.90;;;;;;;6.72;100.00;96549.34;5089614;28;20531;-74
2023/03/08 00:12:29;;;;;;;1999.90;999.90;;;;;;;6.68;100.00;96553.78;5091710;28;20517;-76
2023/03/08 00:14:54;;;;;;;1999.90;999.90;;;;;;;6.60;100.00;96553.69;5091246;28;20024;-74
2023/03/08 00:17:20;;;;;;;1999.90;999.90;;;;;;;6.47;100.00;96547.97;5090650;28;20122;-74
2023/03/08 00:19:45;;;;;;;1999.90;999.90;;;;;;;6.56;100.00;96555.41;5090911;28;20013;-74
2023/03/08 00:22:11;;;;;;;1999.90;999.90;;;;;;;6.68;100.00;96555.69;5090828;28;20470;-75
2023/03/08 00:24:37;;;;;;;1999.90;999.90;;;;;;;6.51;100.00;96558.22;5090767;28;20036;-74
2023/03/08 00:27:02;;;;;;;1999.90;999.90;;;;;;;6.51;100.00;96572.63;5089142;28;20194;-74
2023/03/08 00:29:28;;;;;;;1999.90;999.90;;;;;;;6.54;100.00;96569.28;5090763;28;20055;-75
2023/03/08 00:31:54;;;;;;;1999.90;999.90;;;;;;;6.54;100.00;96577.44;5090604;28;20024;-75
2023/03/08 00:34:19;;;;;;;1999.90;999.90;;;;;;;6.64;100.00;96573.72;5090836;28;20494;-74
2023/03/08 00:36:44;;;;;;;1999.90;999.90;;;;;;;6.56;100.00;96568.97;5089543;28;20145;-76
2023/03/08 00:39:10;;;;;;;1999.90;999.90;;;;;;;6.57;100.00;96579.56;5091376;28;20042;-75
2023/03/08 00:41:36;;;;;;;1999.90;999.90;;;;;;;6.62;100.00;96571.28;5090763;28;20027;-76
2023/03/08 00:44:01;;;;;;;1999.90;999.90;;;;;;;6.68;100.00;96585.56;5090657;28;20438;-74
2023/03/08 00:46:27;;;;;;;1999.90;999.90;;;;;;;6.61;100.00;96585.19;5090548;28;20032;-74
2023/03/08 00:48:52;;;;;;;1999.90;999.90;;;;;;;6.56;100.00;96579.84;5090660;28;20032;-77
2023/03/08 00:51:19;;;;;;;1999.90;999.90;;;;;;;6.67;100.00;96592.91;5090637;28;20124;-75
2023/03/08 00:53:45;;;;;;;1999.90;999.90;;;;;;;6.71;100.00;96588.47;5089069;28;20020;-74
2023/03/08 00:56:11;;;;;;;1999.90;999.90;;;;;;;6.69;100.00;96588.00;5090507;28;20042;-75
2023/03/08 00:58:38;;;;;;;1999.90;999.90;;;;;;;6.64;100.00;96596.22;5090296;28;20039;-75
2023/03/08 01:01:04;;;;;;;1999.90;999.90;;;;;;;6.65;100.00;96578.03;5090219;28;20135;-74
2023/03/08 01:03:30;;;;;;;1999.90;999.90;;;;;;;6.69;100.00;96589.91;5090095;28;20040;-74
2023/03/08 01:05:57;;;;;;;1999.90;999.90;;;;;;;6.77;100.00;96591.88;5090197;28;20438;-75
2023/03/08 01:08:25;;;;;;;1999.90;999.90;;;;;;;6.77;100.00;96591.88;5090587;28;20074;-75
2023/03/08 01:10:55;;;;;;;1999.90;999.90;;;;;;;6.67;100.00;96597.56;5090225;28;20028;-74
2023/03/08 01:13:21;;;;;;;1999.90;999.90;;;;;;;6.70;100.00;96594.22;5090447;28;20499;-74
2023/03/08 01:15:46;;;;;;;1999.90;999.90;;;;;;;6.73;100.00;96588.19;5088700;28;20030;-75
2023/03/08 01:18:12;;;;;;;1999.90;999.90;;;;;;;6.83;100.00;96593.38;5094024;28;20060;-75
2023/03/08 01:20:38;;;;;;;1999.90;999.90;;;;;;;6.84;100.00;96603.16;5093951;28;20051;-75
2023/03/08 01:23:03;;;;;;;1999.90;999.90;;;;;;;6.87;100.00;96599.81;5093868;28;20066;-75
2023/03/08 01:25:29;;;;;;;1999.90;999.90;;;;;;;6.87;100.00;96603.34;5094001;28;20111;-75
2023/03/08 01:27:54;;;;;;;1999.90;999.90;;;;;;;6.82;100.00;96584.44;5093754;28;20039;-74
2023/03/08 01:30:20;;;;;;;1999.90;999.90;;;;;;;6.76;100.00;96582.16;5094289;28;20024;-75
2023/03/08 01:32:45;;;;;;;1999.90;999.90;;;;;;;6.77;100.00;96586.44;5094304;28;20520;-74
2023/03/08 01:35:11;;;;;;;1999.90;999.90;;;;;;;6.76;100.00;96585.66;5099041;28;20034;-75
2023/03/08 01:37:36;;;;;;;1999.90;999.90;;;;;;;6.81;100.00;96587.47;5097160;28;20031;-73
2023/03/08 01:40:04;;;;;;;1999.90;999.90;;;;;;;6.89;100.00;96579.38;5093835;28;20020;-75
2023/03/08 01:42:30;;;;;;;1999.90;999.90;;;;;;;6.87;100.00;96576.19;5093748;28;20039;-76
2023/03/08 01:45:02;;;;;;;1999.90;999.90;;;;;;;6.84;100.00;96574.06;5075129;28;20035;-77
2023/03/08 01:47:31;;;;;;;1999.90;999.90;;;;;;;7.06;100.00;96573.31;5093376;28;20024;-76
2023/03/08 01:50:05;;;;;;;1999.90;999.90;;;;;;;7.23;100.00;96572.66;5093651;28;20110;-76
2023/03/08 01:52:45;;;;;;;1999.90;999.90;;;;;;;7.40;100.00;96587.19;5074893;28;20036;-75
2023/03/08 01:55:12;;;;;;;1999.90;999.90;;;;;;;7.54;100.00;96593.38;5092117;28;20028;-75
2023/03/08 01:57:50;;;;;;;1999.90;999.90;;;;;;;7.50;100.00;96565.19;5093188;28;20380;-77
2023/03/08 02:00:21;;;;;;;1999.90;999.90;;;;;;;7.51;100.00;96564.06;5093381;28;20020;-75
2023/03/08 02:02:50;;;;;;;1999.90;999.90;;;;;;;7.46;100.00;96563.38;5093350;28;20119;-76
2023/03/08 02:05:17;;;;;;;1999.90;999.90;;;;;;;7.50;100.00;96573.34;5093368;28;20067;-75
2023/03/08 02:07:42;;;;;;;1999.90;999.90;;;;;;;7.59;100.00;96567.94;5093084;28;20649;-75
2023/03/08 02:10:09;;;;;;;1999.90;999.90;;;;;;;7.60;100.00;96571.47;5093606;28;20017;-74
2023/03/08 02:12:35;;;;;;;1999.90;999.90;;;;;;;7.66;100.00;96562.06;5092665;28;20048;-75
2023/03/08 02:15:03;;;;;;;1999.90;999.90;;;;;;;7.76;100.00;96564.53;5093073;28;20022;-74
2023/03/08 02:17:29;;;;;;;1999.90;999.90;;;;;;;7.77;100.00;96556.06;5092986;28;20020;-75
2023/03/08 02:20:00;;;;;;;1999.90;999.90;;;;;;;7.89;100.00;96566.38;5092909;28;20392;-76
2023/03/08 02:22:26;;;;;;;1999.90;999.90;;;;;;;7.78;100.00;96563.09;5092973;28;20024;-76
2023/03/08 02:24:51;;;;;;;1999.90;999.90;;;;;;;7.97;100.00;96560.16;5092720;28;20034;-75
2023/03/08 02:27:22;;;;;;;1999.90;999.90;;;;;;;7.98;100.00;96559.06;5092943;28;20020;-75
2023/03/08 02:29:48;;;;;;;1999.90;999.90;;;;;;;7.98;100.00;96564.50;5092198;28;20058;-75
2023/03/08 02:32:14;;;;;;;1999.90;999.90;;;;;;;7.93;100.00;96581.75;5091420;28;20914;-80
2023/03/08 02:34:40;;;;;;;1999.90;999.90;;;;;;;7.91;100.00;96572.31;5092947;28;20038;-73
2023/03/08 02:37:06;;;;;;;1999.90;999.90;;;;;;;7.90;100.00;96576.13;5092748;28;20020;-75
2023/03/08 02:39:31;;;;;;;1999.90;999.90;;;;;;;7.89;100.00;96574.53;5093027;28;20361;-75
2023/03/08 02:41:56;;;;;;;1999.90;999.90;;;;;;;7.92;100.00;96579.38;5092375;28;20052;-77
2023/03/08 02:44:22;;;;;;;1999.90;999.90;;;;;;;7.92;100.00;96576.66;5092278;28;20389;-75
2023/03/08 02:46:47;;;;;;;1999.90;999.90;;;;;;;7.84;100.00;96582.81;5092687;28;20074;-74
2023/03/08 02:49:13;;;;;;;1999.90;999.90;;;;;;;7.78;100.00;96567.75;5092398;28;20032;-75
2023/03/08 02:51:38;;;;;;;1999.90;999.90;;;;;;;7.60;100.00;96560.59;5090965;28;20027;-75
2023/03/08 02:54:04;;;;;;;1999.90;999.90;;;;;;;7.55;100.00;96570.47;5092425;28;20024;-76
2023/03/08 02:56:29;;;;;;;1999.90;999.90;;;;;;;7.52;100.00;96565.66;5078020;28;20039;-74
2023/03/08 02:58:55;;;;;;;1999.90;999.90;;;;;;;7.53;100.00;96578.16;5092289;28;20115;-77
2023/03/08 03:01:20;;;;;;;1999.90;999.90;;;;;;;7.50;100.00;96577.97;5083519;28;20012;-76
2023/03/08 03:03:45;;;;;;;1999.90;999.90;;;;;;;7.33;100.00;96573.19;5071687;28;20455;-74
2023/03/08 03:06:19;;;;;;;1999.90;999.90;;;;;;;7.29;100.00;96588.53;5070149;28;20059;-76
2023/03/08 03:08:45;;;;;;;1999.90;999.90;;;;;;;7.25;100.00;96589.47;5071750;28;20472;-74
2023/03/08 03:11:13;;;;;;;1999.90;999.90;;;;;;;7.18;100.00;96594.50;5071298;28;20050;-75
2023/03/08 03:13:38;;;;;;;1999.90;999.90;;;;;;;6.99;100.00;96600.09;5080746;28;20044;-74
2023/03/08 03:16:08;;;;;;;1999.90;999.90;;;;;;;6.93;100.00;96595.88;5091754;28;20472;-76
2023/03/08 03:18:33;;;;;;;1999.90;999.90;;;;;;;6.89;100.00;96603.06;5091648;28;20032;-74
2023/03/08 03:21:10;;;;;;;1999.90;999.90;;;;;;;6.83;100.00;96601.53;5091239;28;20038;-74
2023/03/08 03:23:36;;;;;;;1999.90;999.90;;;;;;;6.75;100.00;96603.06;5091519;28;20365;-75
2023/03/08 03:26:16;;;;;;;1999.90;999.90;;;;;;;6.71;100.00;96615.66;5091210;28;20032;-77
2023/03/08 03:28:42;;;;;;;1999.90;999.90;;;;;;;6.65;100.00;96621.47;5090357;28;20035;-76
2023/03/08 03:31:10;;;;;;;1999.90;999.90;;;;;;;6.65;100.00;96618.78;5091417;28;20032;-76
2023/03/08 03:33:35;;;;;;;1999.90;999.90;;;;;;;6.61;100.00;96631.38;5091468;28;20082;-76
2023/03/08 03:36:02;;;;;;;1999.90;999.90;;;;;;;6.47;100.00;96639.50;5091380;28;20043;-74
2023/03/08 03:38:27;;;;;;;1999.90;999.90;;;;;;;6.38;100.00;96644.03;5091535;28;20021;-76
2023/03/08 03:41:04;;;;;;;1999.90;999.90;;;;;;;6.25;100.00;96651.06;5092880;28;20123;-76
2023/03/08 03:43:29;;;;;;;1999.90;999.90;;;;;;;6.11;100.00;96633.94;5096841;28;20043;-81
2023/03/08 03:45:56;;;;;;;1999.90;999.90;;;;;;;6.09;100.00;96628.00;5097659;28;20053;-76
2023/03/08 03:48:21;;;;;;;1999.90;999.90;;;;;;;6.11;100.00;96630.44;5094118;28;20070;-76
2023/03/08 03:50:57;;;;;;;1999.90;999.90;;;;;;;5.99;100.00;96630.09;5078779;28;20389;-75
2023/03/08 03:53:23;;;;;;;;;;;;;;;5.96;100.00;96636.91;5073623;28;20024;-75
2023/03/08 03:55:48;;;;;;;;;;;;;;;5.89;100.00;96636.50;5072321;28;19916;-75
2023/03/08 03:58:13;;;;;;;1999.90;999.90;;;;;;;5.78;100.00;96644.00;5070728;28;19916;-76
2023/03/08 04:00:39;;;;;;;1999.90;999.90;;;;;;;5.79;100.00;96652.94;5070463;28;20028;-77
2023/03/08 04:03:04;;;;;;;1999.90;999.90;;;;;;;5.68;100.00;96651.47;5069249;28;20504;-75
2023/03/08 04:05:29;;;;;;;1999.90;999.90;;;;;;;5.59;100.00;96654.06;5070276;28;20128;-75
2023/03/08 04:07:55;;;;;;;1999.90;999.90;;;;;;;5.59;100.00;96655.97;5070415;28;20032;-77
2023/03/08 04:10:20;;;;;;;1999.90;999.90;;;;;;;5.55;100.00;96646.81;5070670;28;20119;-75
2023/03/08 04:12:49;;;;;;;1999.90;999.90;;;;;;;5.57;100.00;96644.63;5070051;28;20070;-76
2023/03/08 04:15:14;;;;;;;1999.90;999.90;;;;;;;5.52;100.00;96650.91;5070114;28;20033;-76
2023/03/08 04:17:40;;;;;;;1999.90;999.90;;;;;;;5.53;100.00;96662.56;5070172;28;20016;-76
2023/03/08 04:20:06;;;;;;;1999.90;999.90;;;;;;;5.49;100.00;96666.97;5070102;28;20037;-74
2023/03/08 04:22:32;;;;;;;1999.90;999.90;;;;;;;5.43;100.00;96665.44;5070117;28;20477;-73
2023/03/08 04:24:57;;;;;;;1999.90;999.90;;;;;;;5.44;100.00;96664.34;5071072;28;20040;-76
2023/03/08 04:27:22;;;;;;;1999.90;999.90;;;;;;;5.60;100.00;96674.66;5070361;28;20024;-76
2023/03/08 04:29:48;;;;;;;1999.90;999.90;;;;;;;5.53;100.00;96657.97;5069813;28;20035;-74
2023/03/08 04:32:13;;;;;;;1999.90;999.90;;;;;;;5.61;100.00;96667.31;5069709;28;20034;-76
2023/03/08 04:34:39;;;;;;;1999.90;999.90;;;;;;;5.70;100.00;96671.78;5068577;28;20036;-75
2023/03/08 04:37:04;;;;;;;1999.90;999.90;;;;;;;5.71;100.00;96665.25;5069668;28;20103;-74
2023/03/08 04:39:30;;;;;;;1999.90;999.90;;;;;;;5.86;100.00;96672.34;5070232;28;20495;-76
2023/03/08 04:41:55;;;;;;;1999.90;999.90;;;;;;;5.95;100.00;96662.47;5070826;28;20052;-74
2023/03/08 04:44:20;;;;;;;1999.90;999.90;;;;;;;6.01;100.00;96674.84;5070967;28;20036;-74
2023/03/08 04:46:46;;;;;;;1999.90;999.90;;;;;;;6.02;100.00;96662.06;5081913;28;20055;-76
2023/03/08 04:49:11;;;;;;;1999.90;999.90;;;;;;;6.09;100.00;96668.72;5093646;28;20038;-76
2023/03/08 04:51:36;;;;;;;1999.90;999.90;;;;;;;6.15;100.00;96670.25;5088942;28;20039;-75
2023/03/08 04:54:03;;;;;;;1999.90;999.90;;;;;;;6.23;100.00;96674.19;5082518;28;20055;-75
2023/03/08 04:56:29;;;;;;;1999.90;999.90;;;;;;;6.44;100.00;96676.22;5094054;28;20028;-75
2023/03/08 04:58:54;;;;;;;1999.90;999.90;;;;;;;6.51;100.00;96680.47;5080561;28;20082;-74
2023/03/08 05:01:22;;;;;;;1999.90;999.90;;;;;;;6.61;100.00;96677.56;5073584;28;20009;-75
2023/03/08 05:03:48;;;;;;;1999.90;999.90;;;;;;;6.70;100.00;96678.47;5072444;28;20390;-77
2023/03/08 05:06:14;;;;;;;1999.90;999.90;;;;;;;6.84;100.00;96688.22;5087682;28;20032;-73
2023/03/08 05:08:39;;;;;;;1999.90;999.90;;;;;;;6.91;100.00;96680.47;5094034;28;20031;-76
2023/03/08 05:11:05;;;;;;;1999.90;999.90;;;;;;;6.89;100.00;96679.16;5094864;28;20548;-74
2023/03/08 05:13:36;;;;;;;1999.90;999.90;;;;;;;6.95;100.00;96678.72;5093899;28;20048;-75
2023/03/08 05:16:03;;;;;;;1999.90;999.90;;;;;;;7.13;100.00;96690.59;5093961;28;20069;-77
2023/03/08 05:18:29;;;;;;;1999.90;999.90;;;;;;;7.10;100.00;96683.06;5093939;28;20170;-76
2023/03/08 05:21:06;;;;;;;1999.90;999.90;;;;;;;7.04;100.00;96683.47;5093562;28;20158;-77
2023/03/08 05:23:32;;;;;;;1999.90;999.90;;;;;;;7.10;100.00;96687.69;5093789;28;20021;-76
2023/03/08 05:25:59;;;;;;;1999.90;999.90;;;;;;;7.20;100.00;96687.47;5093542;28;20035;-78
2023/03/08 05:28:26;;;;;;;1999.90;999.90;;;;;;;7.09;100.00;96680.63;5093708;28;20028;-75
2023/03/08 05:31:00;;;;;;;1999.90;999.90;;;;;;;6.97;100.00;96679.25;5093180;28;20024;-75
2023/03/08 05:33:26;;;;;;;1999.90;999.90;;;;;;;6.96;100.00;96672.19;5086824;28;20032;-76
2023/03/08 05:35:53;;;;;;;1999.90;999.90;;;;;;;7.04;100.00;96684.28;5081303;28;20078;-77
2023/03/08 05:38:19;;;;;;;1999.90;999.90;;;;;;;7.01;100.00;96695.75;5073000;28;20480;-74
2023/03/08 05:40:44;;;;;;;1999.90;999.90;;;;;;;6.95;100.00;96691.53;5094058;28;20078;-74
2023/03/08 05:43:10;;;;;;;1999.90;999.90;;;;;;;7.05;100.00;96694.03;5094706;28;20295;-74
2023/03/08 05:45:35;;;;;;;1999.90;999.90;;;;;;;7.19;100.00;96707.59;5092952;28;20040;-75
2023/03/08 05:48:00;;;;;;;1999.90;999.90;;;;;;;7.33;100.00;96702.97;5093352;28;20523;-76
2023/03/08 05:50:26;;;;;;;1999.90;999.90;;;;;;;7.52;100.00;96714.47;5093592;28;20031;-76
2023/03/08 05:52:51;;;;;;;1999.90;999.90;;;;;;;7.58;100.00;96715.97;5093393;28;20073;-75
2023/03/08 05:55:16;;;;;;;1999.90;999.90;;;;;;;7.72;100.00;96716.75;5092520;28;21334;-75
2023/03/08 05:57:42;;;;;;;1999.90;999.90;;;;;;;7.83;100.00;96717.34;5093689;28;20016;-74
2023/03/08 06:00:08;;;;;;;1999.90;999.90;;;;;;;7.89;100.00;96721.56;5094010;28;20107;-75
2023/03/08 06:02:33;;;;;;;1999.90;999.90;;;;;;;7.99;100.00;96718.56;5093472;28;20020;-75
2023/03/08 06:04:59;;;;;;;1999.90;999.90;;;;;;;8.08;100.00;96720.22;5089425;28;20154;-77
2023/03/08 06:07:24;;;;;;;1999.90;999.90;;;;;;;7.76;100.00;96716.94;5092020;28;20027;-75
2023/03/08 06:09:50;;;;;;;1999.90;999.90;;;;;;;7.48;100.00;96735.28;5091735;28;20515;-75
2023/03/08 06:12:21;;;;;;;1999.90;999.90;;;;;;;7.35;100.00;96736.91;5092221;28;20073;-77
2023/03/08 06:14:50;;;;;;;1999.90;999.90;;;;;;;7.32;100.00;96729.34;5092420;28;20069;-84
2023/03/08 06:17:15;;;;;;;1999.90;999.90;;;;;;;7.18;100.00;96717.69;5091291;28;20036;-75
2023/03/08 06:19:41;;;;;;;1999.90;999.90;;;;;;;7.21;100.00;96749.69;5090929;28;20027;-75
2023/03/08 06:22:06;;;;;;;1999.90;999.90;;;;;;;7.17;100.00;96756.06;5090934;28;20028;-75
2023/03/08 06:24:34;;;;;;;1999.90;999.90;;;;;;;6.97;100.00;96738.25;5091790;28;20044;-76
2023/03/08 06:27:03;;;;;;;1999.90;999.90;;;;;;;6.90;100.00;96743.25;5091376;28;20208;-76
2023/03/08 06:29:28;;;;;;;1999.90;999.90;;;;;;;6.94;100.00;96755.97;5089134;28;20028;-76
2023/03/08 06:31:53;;;;;;;1999.90;999.90;;;;;;;6.84;100.00;96723.53;5089531;28;20043;-75
2023/03/08 06:34:19;;;;;;;1999.90;999.90;;;;;;;7.21;100.00;96763.28;5090923;28;20028;-77
2023/03/08 06:36:44;;;;;;;1999.90;999.90;;;;;;;7.22;100.00;96742.34;5091167;28;20020;-74
2023/03/08 06:39:09;;;;;;;1999.90;999.90;;;;;;;7.53;100.00;96763.16;5090963;28;20181;-73
2023/03/08 06:41:35;;;;;;;1999.90;999.90;;;;;;;7.78;100.00;96758.25;5092353;28;20428;-75
2023/03/08 06:44:00;;;;;;;1999.90;999.90;;;;;;;8.19;100.00;96755.41;5092284;28;20090;-75
2023/03/08 06:46:26;;;;;;;1999.90;999.90;;;;;;;8.63;100.00;96751.88;5092167;28;20038;-75
2023/03/08 06:48:52;;;;;;;1999.90;999.90;;;;;;;9.26;100.00;96755.03;5093822;28;20533;-75
2023/03/08 06:51:18;;;;;;;1999.90;999.90;;;;;;;9.81;100.00;96749.84;5095890;28;20022;-81
2023/03/08 06:53:44;;;;;;;1999.90;999.90;;;;;;;10.13;100.00;96764.97;5093640;28;20111;-75
2023/03/08 06:56:12;;;;;;;1999.90;999.90;;;;;;;10.43;100.00;96765.97;5092123;28;20476;-75
2023/03/08 06:58:37;;;;;;;1999.90;999.90;;;;;;;10.34;100.00;96760.47;5092083;28;20822;-75
2023/03/08 07:01:04;;;;;;;1999.90;999.90;;;;;;;10.19;100.00;96766.44;5091639;28;20032;-75
2023/03/08 07:03:30;;;;;;;1999.90;999.90;;;;;;;10.17;100.00;96766.78;5091792;28;20065;-75
2023/03/08 07:06:01;;;;;;;1999.90;999.90;;;;;;;10.09;100.00;96764.00;5090519;28;20032;-75
2023/03/08 07:08:27;;;;;;;1999.90;999.90;;;;;;;10.12;100.00;96757.88;5090638;28;20077;-76
2023/03/08 07:10:52;;;;;;;1999.90;999.90;;;;;;;10.20;100.00;96771.59;5090954;28;20020;-76
2023/03/08 07:13:18;;;;;;;1999.90;999.90;;;;;;;10.25;100.00;96770.63;5091005;28;20036;-78
2023/03/08 07:15:44;;;;;;;1999.90;999.90;;;;;;;10.43;100.00;96777.66;5090320;28;20051;-76
2023/03/08 07:18:09;;;;;;;1999.90;999.90;;;;;;;10.51;100.00;96778.81;5089612;28;20047;-75
2023/03/08 07:20:35;;;;;;;1999.90;999.90;;;;;;;10.57;100.00;96778.31;5090279;28;20078;-75
2023/03/08 07:23:00;;;;;;;1999.90;999.90;;;;;;;10.97;100.00;96789.00;5090476;28;20383;-76
2023/03/08 07:25:26;;;;;;;1999.90;999.90;;;;;;;11.21;100.00;96789.25;5091550;28;20039;-76
2023/03/08 07:27:52;;;;;;;1999.90;999.90;;;;;;;12.19;100.00;96808.84;5091592;28;20229;-76
2023/03/08 07:30:17;;;;;;;1999.90;999.90;;;;;;;12.80;100.00;96815.47;5091443;28;20404;-76
2023/03/08 07:32:43;;;;;;;1999.90;999.90;;;;;;;13.30;100.00;96818.03;5091916;28;20388;-76
2023/03/08 07:35:11;;;;;;;1999.90;999.90;;;;;;;13.42;96.87;96828.22;5091569;28;20039;-74
2023/03/08 07:37:37;;;;;;;1999.90;999.90;;;;;;;13.88;93.44;96825.03;5091503;28;20053;-76
2023/03/08 07:40:04;;;;;;;1999.90;999.90;;;;;;;14.39;88.54;96831.75;5093513;28;20032;-75
2023/03/08 07:42:30;;;;;;;1999.90;999.90;;;;;;;14.46;85.37;96814.66;5091664;28;20028;-75
2023/03/08 07:44:55;;;;;;;1999.90;999.90;;;;;;;13.89;83.75;96818.41;5091403;28;20448;-77
2023/03/08 07:47:21;;;;;;;1999.90;999.90;;;;;;;13.77;84.95;96804.66;5091344;28;20059;-75
2023/03/08 07:49:46;;;;;;;1999.90;999.90;;;;;;;13.42;85.04;96803.50;5091801;28;20028;-76
2023/03/08 07:52:12;;;;;;;1999.90;999.90;;;;;;;13.30;84.65;96806.22;5092183;28;20065;-76
2023/03/08 07:54:37;;;;;;;1999.90;999.90;;;;;;;13.39;84.18;96801.44;5091642;28;20626;-76
2023/03/08 07:57:03;;;;;;;1999.90;999.90;;;;;;;12.84;86.33;96799.13;5091349;28;20408;-75
2023/03/08 07:59:28;;;;;;;1999.90;999.90;;;;;;;12.54;87.48;96798.41;5091327;28;20023;-75
2023/03/08 08:01:54;;;;;;;1999.90;999.90;;;;;;;12.33;88.18;96801.19;5091420;28;20373;-76
2023/03/08 08:04:21;;;;;;;1999.90;999.90;;;;;;;12.43;88.57;96797.25;5094699;28;20042;-76
2023/03/08 08:06:47;;;;;;;1999.90;999.90;;;;;;;12.52;86.86;96791.66;5094322;28;20038;-76
2023/03/08 08:09:13;;;;;;;1999.90;999.90;;;;;;;13.49;82.04;96811.19;5093652;28;20054;-76
2023/03/08 08:11:39;;;;;;;1999.90;999.90;;;;;;;15.30;73.09;96807.97;5091334;28;20054;-76
2023/03/08 08:14:05;;;;;;;1999.90;999.90;;;;;;;16.73;67.07;96810.97;5090692;28;20048;-75
2023/03/08 08:16:30;;;;;;;1999.90;999.90;;;;;;;17.46;64.48;96821.09;5090823;28;20032;-76
2023/03/08 08:18:55;;;;;;;1999.90;999.90;;;;;;;17.81;61.84;96827.28;5090748;28;20024;-75
2023/03/08 08:21:21;;;;;;;1999.90;999.90;;;;;;;17.55;60.62;96825.25;5091024;28;20077;-75
2023/03/08 08:23:47;;;;;;;1999.90;999.90;;;;;;;17.77;59.42;96836.66;5090659;28;20016;-77
2023/03/08 08:26:19;;;;;;;1999.90;999.90;;;;;;;18.03;59.43;96831.19;5090138;28;20123;-76
2023/03/08 08:28:47;;;;;;;1999.90;999.90;;;;;;;17.22;60.87;96832.50;5090682;28;20472;-76
2023/03/08 08:31:15;;;;;;;1999.90;999.90;;;;;;;16.33;63.17;96838.88;5090515;28;20028;-77
2023/03/08 08:33:41;;;;;;;1999.90;999.90;;;;;;;16.43;64.21;96840.28;5090630;28;20122;-77
2023/03/08 08:36:17;;;;;;;1999.90;999.90;;;;;;;16.51;64.23;96844.78;5090813;28;20110;-75
2023/03/08 08:38:45;;;;;;;1999.90;999.90;;;;;;;16.16;65.09;96841.25;5090881;28;20472;-76
2023/03/08 08:41:11;;;;;;;1999.90;999.90;;;;;;;15.38;67.08;96823.53;5091023;28;20133;-75
2023/03/08 08:43:37;;;;;;;1999.90;999.90;;;;;;;14.90;69.00;96851.34;5089502;28;20552;-76
2023/03/08 08:46:04;;;;;;;1999.90;999.90;;;;;;;14.83;69.00;96829.09;5090701;28;20119;-76
2023/03/08 08:48:31;;;;;;;1999.90;999.90;;;;;;;14.98;68.28;96842.91;5091286;28;20063;-77
2023/03/08 08:50:58;;;;;;;1999.90;999.90;;;;;;;14.21;70.42;96841.41;5090834;28;20028;-76
2023/03/08 08:53:23;;;;;;;1999.90;999.90;;;;;;;13.81;74.30;96830.28;5091067;28;20063;-75
2023/03/08 08:55:49;;;;;;;1999.90;999.90;;;;;;;13.94;74.12;96829.16;5092812;28;20032;-76
2023/03/08 08:58:14;;;;;;;1999.90;999.90;;;;;;;14.00;74.18;96835.25;5093592;28;20444;-75
2023/03/08 09:00:39;;;;;;;1999.90;999.90;;;;;;;13.62;75.17;96827.34;5097277;28;20028;-76
2023/03/08 09:03:05;;;;;;;1999.90;999.90;;;;;;;13.60;75.46;96832.34;5092659;28;20468;-76
2023/03/08 09:05:32;;;;;;;1999.90;999.90;;;;;;;14.25;73.39;96839.53;5090887;28;20081;-75
2023/03/08 09:08:00;;;;;;;1999.90;999.90;;;;;;;15.28;69.63;96840.59;5090314;28;20502;-76
2023/03/08 09:10:28;;;;;;;1999.90;999.90;;;;;;;17.51;61.63;96834.63;5090105;28;20507;-75
2023/03/08 09:12:53;;;;;;;1999.90;999.90;;;;;;;19.31;55.54;96848.41;5089084;28;20044;-75
2023/03/08 09:15:20;;;;;;;1999.90;999.90;;;;;;;19.66;52.93;96846.03;5090406;28;20085;-76
2023/03/08 09:17:46;;;;;;;1999.90;999.90;;;;;;;19.24;53.19;96849.13;5089173;28;20114;-75
2023/03/08 09:20:12;;;;;;;1999.90;999.90;;;;;;;18.11;55.96;96839.22;5089938;28;20021;-76
2023/03/08 09:22:38;;;;;;;1999.90;999.90;;;;;;;17.46;58.01;96837.69;5090130;28;20396;-76
2023/03/08 09:25:05;;;;;;;1999.90;999.90;;;;;;;17.21;59.26;96837.22;5089941;28;20036;-76
2023/03/08 09:27:31;;;;;;;1999.90;999.90;;;;;;;17.33;58.38;96841.78;5090077;28;20023;-76
2023/03/08 09:29:57;;;;;;;1999.90;999.90;;;;;;;17.24;58.09;96841.22;5089961;28;20115;-77
2023/03/08 09:32:23;;;;;;;1999.90;999.90;;;;;;;16.60;59.97;96837.16;5089933;28;20384;-76
2023/03/08 09:34:50;;;;;;;1999.90;999.90;;;;;;;16.03;61.42;96838.59;5091607;28;20028;-74
2023/03/08 09:37:16;;;;;;;1999.90;999.90;;;;;;;15.22;64.60;96846.72;5090467;28;20024;-76
2023/03/08 09:39:42;;;;;;;1999.90;999.90;;;;;;;15.13;66.75;96833.06;5093964;28;20024;-76
2023/03/08 09:42:19;;;;;;;1999.90;999.90;;;;;;;14.29;69.35;96825.91;5094263;28;20038;-77
2023/03/08 09:45:02;;;;;;;1999.90;999.90;;;;;;;14.38;70.86;96824.66;5093607;28;20031;-76
2023/03/08 09:47:40;;;;;;;1999.90;999.90;;;;;;;13.54;72.66;96817.25;5093388;28;20028;-76
2023/03/08 09:50:12;;;;;;;1999.90;999.90;;;;;;;13.79;73.55;96813.34;5093299;28;20032;-75
2023/03/08 09:52:39;;;;;;;1999.90;999.90;;;;;;;13.82;73.68;96812.66;5092658;28;20055;-76
2023/03/08 09:55:18;;;;;;;1999.90;999.90;;;;;;;13.84;74.50;96810.38;5093574;28;20024;-76
2023/03/08 09:57:51;;;;;;;1999.90;999.90;;;;;;;13.64;74.52;96816.78;5093279;28;20474;-76
2023/03/08 10:00:24;;;;;;;1999.90;999.90;;;;;;;13.71;73.41;96819.78;5093282;28;20028;-76
2023/03/08 10:03:12;;;;;;;1999.90;999.90;;;;;;;13.63;74.42;96809.69;5093347;28;20016;-76
2023/03/08 10:06:00;;;;;;;1999.90;999.90;;;;;;;13.37;75.15;96800.97;5093347;28;20480;-76
2023/03/08 10:08:32;;;;;;;1999.90;999.90;;;;;;;13.35;75.26;96798.56;5093306;28;20021;-76
2023/03/08 10:11:01;;;;;;;1999.90;999.90;;;;;;;13.39;75.47;96791.25;5092999;28;20016;-76
2023/03/08 10:13:37;;;;;;;1999.90;999.90;;;;;;;13.41;74.14;96799.13;5092344;28;20457;-75
2023/03/08 10:16:08;;;;;;;1999.90;999.90;;;;;;;13.23;72.91;96797.75;5091972;28;20114;-75
2023/03/08 10:18:36;;;;;;;1999.90;999.90;;;;;;;13.72;71.86;96793.09;5093072;28;20032;-76
2023/03/08 10:21:02;;;;;;;1999.90;999.90;;;;;;;13.98;70.58;96784.47;5092730;28;20031;-76
2023/03/08 10:23:32;;;;;;;1999.90;999.90;;;;;;;14.04;70.37;96789.38;5091867;28;20447;-76
2023/03/08 10:25:59;;;;;;;1999.90;999.90;;;;;;;14.10;70.43;96782.50;5092794;28;20028;-76
2023/03/08 10:28:26;;;;;;;1999.90;999.90;;;;;;;14.29;68.36;96776.38;5092803;28;20404;-76
2023/03/08 10:30:53;;;;;;;1999.90;999.90;;;;;;;13.94;69.73;96771.41;5092872;28;20020;-76
2023/03/08 10:33:20;;;;;;;1999.90;999.90;;;;;;;13.84;70.56;96776.59;5092696;28;20024;-77
2023/03/08 10:35:56;;;;;;;1999.90;999.90;;;;;;;14.20;69.71;96778.47;5091868;28;20028;-76
2023/03/08 10:38:23;;;;;;;1999.90;999.90;;;;;;;13.82;70.79;96774.19;5093197;28;20549;-76
2023/03/08 10:40:48;;;;;;;1999.90;999.90;;;;;;;14.05;69.31;96766.25;5092922;28;20395;-76
2023/03/08 10:43:31;;;;;;;1999.90;999.90;;;;;;;14.05;69.67;96773.69;5093085;28;20020;-76
2023/03/08 10:45:58;;;;;;;1999.90;999.90;;;;;;;14.51;68.44;96772.31;5092736;28;20048;-75
2023/03/08 10:48:24;;;;;;;1999.90;999.90;;;;;;;14.74;66.74;96757.69;5092782;28;20028;-76
2023/03/08 10:51:01;;;;;;;1999.90;999.90;;;;;;;15.50;64.98;96760.09;5092155;28;20030;-76
2023/03/08 10:53:28;;;;;;;1999.90;999.90;;;;;;;15.93;61.89;96761.09;5092603;28;20036;-76